sensor_id;sensor_type;location;lat;lon;timestamp;P1;durP1;ratioP1;P2;durP2;ratioP2
50880;SDS011;36858;47.832;-3.800;2024-01-16T00:01:45;5.17;;;2.87;;
50880;SDS011;36858;47.832;-3.800;2024-01-16T00:04:12;3.87;;;2.73;;
50880;SDS011;36858;47.832;-3.800;2024-01-16T00:06:40;5.97;;;3.30;;
50880;SDS011;36858;47.832;-3.800;2024-01-16T00:09:11;5.27;;;2.50;;
50880;SDS011;36858;47.832;-3.800;2024-01-16T00:11:41;5.37;;;2.70;;
50880;SDS011;36858;47.832;-3.800;2024-01-16T00:14:11;4.30;;;2.87;;
50880;SDS011;36858;47.832;-3.800;2024-01-16T00:16:47;5.00;;;2.50;;
50880;SDS011;36858;47.832;-3.800;2024-01-16T00:19:15;4.57;;;3.07;;
50880;SDS011;36858;47.832;-3.800;2024-01-16T00:21:42;3.07;;;2.13;;
50880;SDS011;36858;47.832;-3.800;2024-01-16T00:24:12;6.80;;;2.87;;
50880;SDS011;36858;47.832;-3.800;2024-01-16T00:26:39;3.33;;;2.57;;
50880;SDS011;36858;47.832;-3.800;2024-01-16T00:29:06;2.93;;;2.03;;
50880;SDS011;36858;47.832;-3.800;2024-01-16T00:31:35;3.80;;;2.40;;
50880;SDS011;36858;47.832;-3.800;2024-01-16T00:34:02;6.53;;;2.50;;
50880;SDS011;36858;47.832;-3.800;2024-01-16T00:36:30;4.27;;;2.40;;
50880;SDS011;36858;47.832;-3.800;2024-01-16T00:38:57;7.30;;;3.13;;
50880;SDS011;36858;47.832;-3.800;2024-01-16T00:41:24;6.37;;;3.27;;
50880;SDS011;36858;47.832;-3.800;2024-01-16T00:43:50;9.57;;;3.73;;
50880;SDS011;36858;47.832;-3.800;2024-01-16T00:46:17;5.67;;;3.07;;
50880;SDS011;36858;47.832;-3.800;2024-01-16T00:48:44;7.17;;;3.30;;
50880;SDS011;36858;47.832;-3.800;2024-01-16T00:51:11;5.83;;;2.90;;
50880;SDS011;36858;47.832;-3.800;2024-01-16T00:53:41;5.13;;;2.80;;
50880;SDS011;36858;47.832;-3.800;2024-01-16T00:56:09;6.37;;;2.87;;
50880;SDS011;36858;47.832;-3.800;2024-01-16T00:58:37;4.90;;;2.90;;
50880;SDS011;36858;47.832;-3.800;2024-01-16T01:01:04;4.53;;;2.57;;
50880;SDS011;36858;47.832;-3.800;2024-01-16T01:03:31;3.77;;;2.20;;
50880;SDS011;36858;47.832;-3.800;2024-01-16T01:05:59;3.03;;;2.33;;
50880;SDS011;36858;47.832;-3.800;2024-01-16T01:08:27;4.57;;;2.37;;
50880;SDS011;36858;47.832;-3.800;2024-01-16T01:10:54;4.03;;;2.40;;
50880;SDS011;36858;47.832;-3.800;2024-01-16T01:13:21;3.13;;;2.07;;
50880;SDS011;36858;47.832;-3.800;2024-01-16T01:15:48;3.87;;;2.30;;
50880;SDS011;36858;47.832;-3.800;2024-01-16T01:18:15;3.93;;;2.13;;
50880;SDS011;36858;47.832;-3.800;2024-01-16T01:20:43;2.07;;;1.63;;
50880;SDS011;36858;47.832;-3.800;2024-01-16T01:23:10;1.57;;;1.47;;
50880;SDS011;36858;47.832;-3.800;2024-01-16T01:25:36;2.00;;;1.80;;
50880;SDS011;36858;47.832;-3.800;2024-01-16T01:28:03;4.23;;;1.93;;
50880;SDS011;36858;47.832;-3.800;2024-01-16T01:30:31;3.97;;;1.97;;
50880;SDS011;36858;47.832;-3.800;2024-01-16T01:32:58;3.93;;;2.00;;
50880;SDS011;36858;47.832;-3.800;2024-01-16T01:35:25;4.97;;;2.10;;
50880;SDS011;36858;47.832;-3.800;2024-01-16T01:37:52;4.03;;;1.90;;
50880;SDS011;36858;47.832;-3.800;2024-01-16T01:40:19;3.27;;;1.83;;
50880;SDS011;36858;47.832;-3.800;2024-01-16T01:42:46;2.30;;;2.03;;
50880;SDS011;36858;47.832;-3.800;2024-01-16T01:45:13;4.93;;;1.97;;
50880;SDS011;36858;47.832;-3.800;2024-01-16T01:47:40;5.27;;;1.90;;
50880;SDS011;36858;47.832;-3.800;2024-01-16T01:50:11;2.73;;;1.60;;
50880;SDS011;36858;47.832;-3.800;2024-01-16T01:52:41;3.80;;;1.80;;
50880;SDS011;36858;47.832;-3.800;2024-01-16T01:55:10;2.60;;;1.90;;
50880;SDS011;36858;47.832;-3.800;2024-01-16T01:57:37;3.30;;;1.80;;
50880;SDS011;36858;47.832;-3.800;2024-01-16T02:00:05;2.10;;;1.50;;
50880;SDS011;36858;47.832;-3.800;2024-01-16T02:02:32;4.97;;;1.60;;
50880;SDS011;36858;47.832;-3.800;2024-01-16T02:05:00;3.23;;;1.67;;
50880;SDS011;36858;47.832;-3.800;2024-01-16T02:07:27;2.97;;;1.70;;
50880;SDS011;36858;47.832;-3.800;2024-01-16T02:09:55;6.30;;;2.00;;
50880;SDS011;36858;47.832;-3.800;2024-01-16T02:12:22;2.47;;;1.70;;
50880;SDS011;36858;47.832;-3.800;2024-01-16T02:14:51;2.37;;;1.60;;
50880;SDS011;36858;47.832;-3.800;2024-01-16T02:17:18;3.20;;;1.60;;
50880;SDS011;36858;47.832;-3.800;2024-01-16T02:19:45;3.07;;;1.80;;
50880;SDS011;36858;47.832;-3.800;2024-01-16T02:22:13;3.70;;;1.90;;
50880;SDS011;36858;47.832;-3.800;2024-01-16T02:24:42;2.63;;;1.60;;
50880;SDS011;36858;47.832;-3.800;2024-01-16T02:27:09;3.00;;;1.60;;
50880;SDS011;36858;47.832;-3.800;2024-01-16T02:29:40;2.47;;;1.50;;
50880;SDS011;36858;47.832;-3.800;2024-01-16T02:32:10;2.93;;;1.90;;
50880;SDS011;36858;47.832;-3.800;2024-01-16T02:34:39;2.83;;;1.50;;
50880;SDS011;36858;47.832;-3.800;2024-01-16T02:37:06;2.50;;;1.60;;
50880;SDS011;36858;47.832;-3.800;2024-01-16T02:39:33;7.40;;;1.77;;
50880;SDS011;36858;47.832;-3.800;2024-01-16T02:42:00;2.13;;;1.63;;
50880;SDS011;36858;47.832;-3.800;2024-01-16T02:44:27;2.63;;;1.27;;
50880;SDS011;36858;47.832;-3.800;2024-01-16T02:46:54;2.80;;;2.00;;
50880;SDS011;36858;47.832;-3.800;2024-01-16T02:49:21;4.07;;;1.53;;
50880;SDS011;36858;47.832;-3.800;2024-01-16T02:51:48;1.77;;;1.50;;
50880;SDS011;36858;47.832;-3.800;2024-01-16T02:54:15;2.90;;;1.77;;
50880;SDS011;36858;47.832;-3.800;2024-01-16T02:56:42;2.90;;;1.30;;
50880;SDS011;36858;47.832;-3.800;2024-01-16T02:59:09;2.33;;;1.90;;
50880;SDS011;36858;47.832;-3.800;2024-01-16T03:01:36;5.43;;;1.97;;
50880;SDS011;36858;47.832;-3.800;2024-01-16T03:04:03;2.50;;;1.40;;
50880;SDS011;36858;47.832;-3.800;2024-01-16T03:06:30;2.93;;;1.60;;
50880;SDS011;36858;47.832;-3.800;2024-01-16T03:08:57;4.20;;;1.67;;
50880;SDS011;36858;47.832;-3.800;2024-01-16T03:11:24;5.03;;;1.70;;
50880;SDS011;36858;47.832;-3.800;2024-01-16T03:13:51;3.30;;;1.70;;
50880;SDS011;36858;47.832;-3.800;2024-01-16T03:16:19;3.03;;;1.70;;
50880;SDS011;36858;47.832;-3.800;2024-01-16T03:18:47;5.10;;;1.87;;
50880;SDS011;36858;47.832;-3.800;2024-01-16T03:21:14;3.57;;;1.53;;
50880;SDS011;36858;47.832;-3.800;2024-01-16T03:23:41;2.63;;;1.90;;
50880;SDS011;36858;47.832;-3.800;2024-01-16T03:26:11;5.20;;;2.03;;
50880;SDS011;36858;47.832;-3.800;2024-01-16T03:28:41;2.57;;;1.50;;
50880;SDS011;36858;47.832;-3.800;2024-01-16T03:31:08;1.90;;;1.70;;
50880;SDS011;36858;47.832;-3.800;2024-01-16T03:33:35;2.70;;;1.70;;
50880;SDS011;36858;47.832;-3.800;2024-01-16T03:36:09;3.37;;;1.53;;
50880;SDS011;36858;47.832;-3.800;2024-01-16T03:38:36;2.87;;;1.73;;
50880;SDS011;36858;47.832;-3.800;2024-01-16T03:41:03;4.07;;;1.60;;
50880;SDS011;36858;47.832;-3.800;2024-01-16T03:43:30;3.70;;;1.77;;
50880;SDS011;36858;47.832;-3.800;2024-01-16T03:45:57;4.13;;;1.77;;
50880;SDS011;36858;47.832;-3.800;2024-01-16T03:48:24;3.57;;;1.60;;
50880;SDS011;36858;47.832;-3.800;2024-01-16T03:50:51;2.33;;;1.60;;
50880;SDS011;36858;47.832;-3.800;2024-01-16T03:53:20;3.37;;;1.40;;
50880;SDS011;36858;47.832;-3.800;2024-01-16T03:55:47;2.43;;;1.83;;
50880;SDS011;36858;47.832;-3.800;2024-01-16T03:58:15;1.87;;;1.20;;
50880;SDS011;36858;47.832;-3.800;2024-01-16T04:00:44;3.67;;;2.07;;
50880;SDS011;36858;47.832;-3.800;2024-01-16T04:03:12;1.63;;;1.27;;
50880;SDS011;36858;47.832;-3.800;2024-01-16T04:05:39;3.00;;;1.50;;
50880;SDS011;36858;47.832;-3.800;2024-01-16T04:08:06;1.87;;;1.40;;
50880;SDS011;36858;47.832;-3.800;2024-01-16T04:10:34;2.77;;;1.47;;
50880;SDS011;36858;47.832;-3.800;2024-01-16T04:13:01;2.13;;;1.30;;
50880;SDS011;36858;47.832;-3.800;2024-01-16T04:15:28;3.07;;;1.50;;
50880;SDS011;36858;47.832;-3.800;2024-01-16T04:17:55;2.80;;;1.30;;
50880;SDS011;36858;47.832;-3.800;2024-01-16T04:20:23;1.57;;;1.47;;
50880;SDS011;36858;47.832;-3.800;2024-01-16T04:22:49;3.70;;;1.37;;
50880;SDS011;36858;47.832;-3.800;2024-01-16T04:25:16;3.77;;;1.53;;
50880;SDS011;36858;47.832;-3.800;2024-01-16T04:27:44;2.40;;;1.73;;
50880;SDS011;36858;47.832;-3.800;2024-01-16T04:30:11;2.03;;;1.40;;
50880;SDS011;36858;47.832;-3.800;2024-01-16T04:32:38;3.13;;;1.60;;
50880;SDS011;36858;47.832;-3.800;2024-01-16T04:35:08;1.80;;;1.30;;
50880;SDS011;36858;47.832;-3.800;2024-01-16T04:37:35;2.87;;;1.37;;
50880;SDS011;36858;47.832;-3.800;2024-01-16T04:40:03;1.80;;;1.27;;
50880;SDS011;36858;47.832;-3.800;2024-01-16T04:42:32;5.40;;;1.53;;
50880;SDS011;36858;47.832;-3.800;2024-01-16T04:44:59;2.13;;;1.27;;
50880;SDS011;36858;47.832;-3.800;2024-01-16T04:47:26;2.33;;;1.50;;
50880;SDS011;36858;47.832;-3.800;2024-01-16T04:49:53;4.63;;;1.83;;
50880;SDS011;36858;47.832;-3.800;2024-01-16T04:52:20;2.07;;;1.60;;
50880;SDS011;36858;47.832;-3.800;2024-01-16T04:54:46;2.93;;;1.30;;
50880;SDS011;36858;47.832;-3.800;2024-01-16T04:57:13;2.27;;;1.33;;
50880;SDS011;36858;47.832;-3.800;2024-01-16T04:59:40;2.40;;;1.63;;
50880;SDS011;36858;47.832;-3.800;2024-01-16T05:02:08;2.40;;;1.33;;
50880;SDS011;36858;47.832;-3.800;2024-01-16T05:04:36;4.97;;;1.67;;
50880;SDS011;36858;47.832;-3.800;2024-01-16T05:07:04;1.83;;;1.20;;
50880;SDS011;36858;47.832;-3.800;2024-01-16T05:09:31;4.10;;;1.80;;
50880;SDS011;36858;47.832;-3.800;2024-01-16T05:11:58;2.70;;;1.30;;
50880;SDS011;36858;47.832;-3.800;2024-01-16T05:14:25;1.83;;;1.10;;
50880;SDS011;36858;47.832;-3.800;2024-01-16T05:16:52;2.73;;;1.50;;
50880;SDS011;36858;47.832;-3.800;2024-01-16T05:19:19;1.93;;;1.13;;
50880;SDS011;36858;47.832;-3.800;2024-01-16T05:21:46;1.50;;;1.20;;
50880;SDS011;36858;47.832;-3.800;2024-01-16T05:24:13;3.13;;;2.00;;
50880;SDS011;36858;47.832;-3.800;2024-01-16T05:26:40;5.10;;;1.40;;
50880;SDS011;36858;47.832;-3.800;2024-01-16T05:29:07;1.97;;;1.53;;
50880;SDS011;36858;47.832;-3.800;2024-01-16T05:31:39;2.63;;;1.67;;
50880;SDS011;36858;47.832;-3.800;2024-01-16T05:34:06;2.60;;;1.70;;
50880;SDS011;36858;47.832;-3.800;2024-01-16T05:36:33;5.97;;;1.57;;
50880;SDS011;36858;47.832;-3.800;2024-01-16T05:39:00;1.40;;;1.30;;
50880;SDS011;36858;47.832;-3.800;2024-01-16T05:41:27;2.23;;;1.60;;
50880;SDS011;36858;47.832;-3.800;2024-01-16T05:43:54;3.47;;;1.70;;
50880;SDS011;36858;47.832;-3.800;2024-01-16T05:46:21;3.17;;;1.20;;
50880;SDS011;36858;47.832;-3.800;2024-01-16T05:48:48;2.13;;;1.47;;
50880;SDS011;36858;47.832;-3.800;2024-01-16T05:51:15;2.13;;;1.43;;
50880;SDS011;36858;47.832;-3.800;2024-01-16T05:53:42;3.50;;;1.70;;
50880;SDS011;36858;47.832;-3.800;2024-01-16T05:56:10;2.47;;;1.20;;
50880;SDS011;36858;47.832;-3.800;2024-01-16T05:58:37;2.27;;;1.13;;
50880;SDS011;36858;47.832;-3.800;2024-01-16T06:01:05;1.57;;;1.27;;
50880;SDS011;36858;47.832;-3.800;2024-01-16T06:03:32;3.73;;;1.53;;
50880;SDS011;36858;47.832;-3.800;2024-01-16T06:05:59;3.57;;;1.93;;
50880;SDS011;36858;47.832;-3.800;2024-01-16T06:08:26;3.37;;;1.47;;
50880;SDS011;36858;47.832;-3.800;2024-01-16T06:10:53;4.80;;;1.30;;
50880;SDS011;36858;47.832;-3.800;2024-01-16T06:13:20;1.37;;;1.27;;
50880;SDS011;36858;47.832;-3.800;2024-01-16T06:15:48;2.20;;;1.37;;
50880;SDS011;36858;47.832;-3.800;2024-01-16T06:18:15;1.90;;;1.53;;
50880;SDS011;36858;47.832;-3.800;2024-01-16T06:20:42;3.17;;;1.50;;
50880;SDS011;36858;47.832;-3.800;2024-01-16T06:23:09;5.03;;;1.73;;
50880;SDS011;36858;47.832;-3.800;2024-01-16T06:25:36;2.17;;;1.50;;
50880;SDS011;36858;47.832;-3.800;2024-01-16T06:28:03;1.80;;;1.47;;
50880;SDS011;36858;47.832;-3.800;2024-01-16T06:30:31;2.33;;;1.47;;
50880;SDS011;36858;47.832;-3.800;2024-01-16T06:32:58;3.27;;;1.50;;
50880;SDS011;36858;47.832;-3.800;2024-01-16T06:35:26;4.00;;;1.70;;
50880;SDS011;36858;47.832;-3.800;2024-01-16T06:37:53;1.97;;;1.70;;
50880;SDS011;36858;47.832;-3.800;2024-01-16T06:40:20;2.23;;;1.17;;
50880;SDS011;36858;47.832;-3.800;2024-01-16T06:42:47;4.37;;;1.83;;
50880;SDS011;36858;47.832;-3.800;2024-01-16T06:45:14;1.53;;;1.30;;
50880;SDS011;36858;47.832;-3.800;2024-01-16T06:47:42;3.10;;;1.50;;
50880;SDS011;36858;47.832;-3.800;2024-01-16T06:50:09;2.37;;;1.73;;
50880;SDS011;36858;47.832;-3.800;2024-01-16T06:52:36;2.97;;;1.70;;
50880;SDS011;36858;47.832;-3.800;2024-01-16T06:55:03;4.97;;;1.43;;
50880;SDS011;36858;47.832;-3.800;2024-01-16T06:57:30;6.87;;;2.20;;
50880;SDS011;36858;47.832;-3.800;2024-01-16T06:59:57;3.33;;;1.93;;
50880;SDS011;36858;47.832;-3.800;2024-01-16T07:02:24;1.97;;;1.30;;
50880;SDS011;36858;47.832;-3.800;2024-01-16T07:04:52;3.33;;;1.77;;
50880;SDS011;36858;47.832;-3.800;2024-01-16T07:07:19;3.13;;;1.70;;
50880;SDS011;36858;47.832;-3.800;2024-01-16T07:09:46;3.23;;;1.90;;
50880;SDS011;36858;47.832;-3.800;2024-01-16T07:12:13;4.60;;;1.90;;
50880;SDS011;36858;47.832;-3.800;2024-01-16T07:14:40;1.77;;;1.57;;
50880;SDS011;36858;47.832;-3.800;2024-01-16T07:17:07;5.27;;;1.87;;
50880;SDS011;36858;47.832;-3.800;2024-01-16T07:19:34;5.40;;;1.90;;
50880;SDS011;36858;47.832;-3.800;2024-01-16T07:22:01;2.00;;;1.43;;
50880;SDS011;36858;47.832;-3.800;2024-01-16T07:24:28;2.93;;;1.53;;
50880;SDS011;36858;47.832;-3.800;2024-01-16T07:26:55;2.37;;;1.60;;
50880;SDS011;36858;47.832;-3.800;2024-01-16T07:29:22;5.03;;;1.50;;
50880;SDS011;36858;47.832;-3.800;2024-01-16T07:31:49;3.60;;;1.40;;
50880;SDS011;36858;47.832;-3.800;2024-01-16T07:34:15;1.80;;;1.57;;
50880;SDS011;36858;47.832;-3.800;2024-01-16T07:36:47;3.17;;;1.87;;
50880;SDS011;36858;47.832;-3.800;2024-01-16T07:39:14;2.73;;;1.80;;
50880;SDS011;36858;47.832;-3.800;2024-01-16T07:41:41;6.10;;;1.77;;
50880;SDS011;36858;47.832;-3.800;2024-01-16T07:44:08;4.13;;;2.00;;
50880;SDS011;36858;47.832;-3.800;2024-01-16T07:46:35;6.17;;;2.67;;
50880;SDS011;36858;47.832;-3.800;2024-01-16T07:49:02;4.27;;;2.03;;
50880;SDS011;36858;47.832;-3.800;2024-01-16T07:51:29;4.77;;;2.57;;
50880;SDS011;36858;47.832;-3.800;2024-01-16T07:54:05;4.03;;;2.63;;
50880;SDS011;36858;47.832;-3.800;2024-01-16T07:56:33;7.00;;;3.60;;
50880;SDS011;36858;47.832;-3.800;2024-01-16T07:59:01;4.47;;;3.07;;
50880;SDS011;36858;47.832;-3.800;2024-01-16T08:01:28;7.50;;;2.30;;
50880;SDS011;36858;47.832;-3.800;2024-01-16T08:03:55;4.37;;;2.03;;
50880;SDS011;36858;47.832;-3.800;2024-01-16T08:06:23;6.83;;;2.93;;
50880;SDS011;36858;47.832;-3.800;2024-01-16T08:08:50;3.47;;;2.13;;
50880;SDS011;36858;47.832;-3.800;2024-01-16T08:11:18;3.47;;;2.20;;
50880;SDS011;36858;47.832;-3.800;2024-01-16T08:13:45;7.90;;;2.63;;
50880;SDS011;36858;47.832;-3.800;2024-01-16T08:16:12;4.70;;;2.60;;
50880;SDS011;36858;47.832;-3.800;2024-01-16T08:18:39;3.30;;;2.57;;
50880;SDS011;36858;47.832;-3.800;2024-01-16T08:21:06;7.00;;;3.03;;
50880;SDS011;36858;47.832;-3.800;2024-01-16T08:23:34;9.50;;;2.93;;
50880;SDS011;36858;47.832;-3.800;2024-01-16T08:26:01;8.03;;;3.20;;
50880;SDS011;36858;47.832;-3.800;2024-01-16T08:28:28;5.87;;;2.90;;
50880;SDS011;36858;47.832;-3.800;2024-01-16T08:30:55;7.43;;;2.70;;
50880;SDS011;36858;47.832;-3.800;2024-01-16T08:33:22;5.93;;;3.20;;
50880;SDS011;36858;47.832;-3.800;2024-01-16T08:36:02;10.73;;;3.13;;
50880;SDS011;36858;47.832;-3.800;2024-01-16T08:38:30;4.00;;;2.57;;
50880;SDS011;36858;47.832;-3.800;2024-01-16T08:40:57;6.67;;;2.83;;
50880;SDS011;36858;47.832;-3.800;2024-01-16T08:43:24;7.33;;;3.23;;
50880;SDS011;36858;47.832;-3.800;2024-01-16T08:45:51;3.97;;;2.80;;
50880;SDS011;36858;47.832;-3.800;2024-01-16T08:48:18;6.87;;;3.20;;
50880;SDS011;36858;47.832;-3.800;2024-01-16T08:50:45;4.97;;;3.00;;
50880;SDS011;36858;47.832;-3.800;2024-01-16T08:53:12;6.53;;;3.40;;
50880;SDS011;36858;47.832;-3.800;2024-01-16T08:55:39;7.63;;;3.30;;
50880;SDS011;36858;47.832;-3.800;2024-01-16T08:58:05;5.53;;;3.00;;
50880;SDS011;36858;47.832;-3.800;2024-01-16T09:00:32;4.50;;;2.63;;
50880;SDS011;36858;47.832;-3.800;2024-01-16T09:03:00;4.97;;;2.77;;
50880;SDS011;36858;47.832;-3.800;2024-01-16T09:05:30;12.20;;;2.90;;
50880;SDS011;36858;47.832;-3.800;2024-01-16T09:07:57;5.57;;;3.17;;
50880;SDS011;36858;47.832;-3.800;2024-01-16T09:10:24;7.10;;;2.67;;
50880;SDS011;36858;47.832;-3.800;2024-01-16T09:12:51;5.20;;;2.33;;
50880;SDS011;36858;47.832;-3.800;2024-01-16T09:15:18;3.60;;;2.73;;
50880;SDS011;36858;47.832;-3.800;2024-01-16T09:17:45;4.87;;;2.93;;
50880;SDS011;36858;47.832;-3.800;2024-01-16T09:20:12;4.20;;;2.90;;
50880;SDS011;36858;47.832;-3.800;2024-01-16T09:22:39;3.97;;;3.30;;
50880;SDS011;36858;47.832;-3.800;2024-01-16T09:25:06;6.00;;;2.70;;
50880;SDS011;36858;47.832;-3.800;2024-01-16T09:27:33;8.07;;;2.80;;
50880;SDS011;36858;47.832;-3.800;2024-01-16T09:30:00;5.33;;;2.97;;
50880;SDS011;36858;47.832;-3.800;2024-01-16T09:32:27;4.67;;;2.60;;
50880;SDS011;36858;47.832;-3.800;2024-01-16T09:34:54;4.93;;;2.63;;
50880;SDS011;36858;47.832;-3.800;2024-01-16T09:37:21;4.60;;;2.83;;
50880;SDS011;36858;47.832;-3.800;2024-01-16T09:39:48;3.30;;;2.87;;
50880;SDS011;36858;47.832;-3.800;2024-01-16T09:42:15;5.30;;;2.60;;
50880;SDS011;36858;47.832;-3.800;2024-01-16T09:44:42;7.43;;;3.30;;
50880;SDS011;36858;47.832;-3.800;2024-01-16T09:47:09;8.53;;;2.80;;
50880;SDS011;36858;47.832;-3.800;2024-01-16T09:49:37;4.43;;;2.53;;
50880;SDS011;36858;47.832;-3.800;2024-01-16T09:52:06;3.30;;;2.40;;
50880;SDS011;36858;47.832;-3.800;2024-01-16T09:54:32;4.33;;;3.13;;
50880;SDS011;36858;47.832;-3.800;2024-01-16T09:56:59;3.77;;;2.53;;
50880;SDS011;36858;47.832;-3.800;2024-01-16T09:59:29;3.83;;;2.37;;
50880;SDS011;36858;47.832;-3.800;2024-01-16T10:01:58;5.67;;;2.70;;
50880;SDS011;36858;47.832;-3.800;2024-01-16T10:04:27;6.87;;;3.97;;
50880;SDS011;36858;47.832;-3.800;2024-01-16T10:06:54;6.13;;;2.77;;
50880;SDS011;36858;47.832;-3.800;2024-01-16T10:09:24;4.13;;;2.50;;
50880;SDS011;36858;47.832;-3.800;2024-01-16T10:11:51;5.93;;;3.23;;
50880;SDS011;36858;47.832;-3.800;2024-01-16T10:14:19;5.40;;;3.40;;
50880;SDS011;36858;47.832;-3.800;2024-01-16T10:17:02;9.87;;;3.13;;
50880;SDS011;36858;47.832;-3.800;2024-01-16T10:19:32;6.37;;;3.20;;
50880;SDS011;36858;47.832;-3.800;2024-01-16T10:22:14;13.90;;;3.77;;
50880;SDS011;36858;47.832;-3.800;2024-01-16T10:27:34;6.30;;;3.67;;
50880;SDS011;36858;47.832;-3.800;2024-01-16T10:30:02;7.57;;;3.13;;
50880;SDS011;36858;47.832;-3.800;2024-01-16T10:32:39;7.53;;;3.10;;
50880;SDS011;36858;47.832;-3.800;2024-01-16T10:35:08;5.20;;;2.70;;
50880;SDS011;36858;47.832;-3.800;2024-01-16T10:40:19;6.70;;;3.13;;
50880;SDS011;36858;47.832;-3.800;2024-01-16T10:42:58;5.67;;;3.33;;
50880;SDS011;36858;47.832;-3.800;2024-01-16T10:45:27;5.70;;;2.70;;
50880;SDS011;36858;47.832;-3.800;2024-01-16T10:48:06;8.00;;;3.17;;
50880;SDS011;36858;47.832;-3.800;2024-01-16T10:50:36;6.20;;;2.93;;
50880;SDS011;36858;47.832;-3.800;2024-01-16T10:53:05;9.40;;;3.10;;
50880;SDS011;36858;47.832;-3.800;2024-01-16T10:55:41;9.20;;;3.60;;
50880;SDS011;36858;47.832;-3.800;2024-01-16T10:58:11;7.07;;;3.10;;
50880;SDS011;36858;47.832;-3.800;2024-01-16T11:00:39;26.23;;;5.53;;
50880;SDS011;36858;47.832;-3.800;2024-01-16T11:03:09;7.67;;;4.37;;
50880;SDS011;36858;47.832;-3.800;2024-01-16T11:05:41;8.07;;;3.30;;
50880;SDS011;36858;47.832;-3.800;2024-01-16T11:08:09;4.13;;;2.80;;
50880;SDS011;36858;47.832;-3.800;2024-01-16T11:10:40;5.13;;;3.40;;
50880;SDS011;36858;47.832;-3.800;2024-01-16T11:13:07;9.57;;;3.87;;
50880;SDS011;36858;47.832;-3.800;2024-01-16T11:15:33;5.80;;;3.50;;
50880;SDS011;36858;47.832;-3.800;2024-01-16T11:18:01;5.67;;;3.17;;
50880;SDS011;36858;47.832;-3.800;2024-01-16T11:20:29;4.40;;;2.87;;
50880;SDS011;36858;47.832;-3.800;2024-01-16T11:23:17;4.37;;;2.90;;
50880;SDS011;36858;47.832;-3.800;2024-01-16T11:25:44;6.07;;;2.70;;
50880;SDS011;36858;47.832;-3.800;2024-01-16T11:28:11;4.50;;;2.80;;
50880;SDS011;36858;47.832;-3.800;2024-01-16T11:30:40;5.07;;;2.93;;
50880;SDS011;36858;47.832;-3.800;2024-01-16T11:33:41;3.50;;;2.20;;
50880;SDS011;36858;47.832;-3.800;2024-01-16T11:36:00;6.20;;;2.57;;
50880;SDS011;36858;47.832;-3.800;2024-01-16T11:38:28;4.87;;;2.47;;
50880;SDS011;36858;47.832;-3.800;2024-01-16T11:40:55;3.50;;;2.63;;
50880;SDS011;36858;47.832;-3.800;2024-01-16T11:48:25;5.13;;;2.57;;
50880;SDS011;36858;47.832;-3.800;2024-01-16T11:50:53;3.87;;;2.30;;
50880;SDS011;36858;47.832;-3.800;2024-01-16T11:53:38;3.37;;;2.40;;
50880;SDS011;36858;47.832;-3.800;2024-01-16T12:01:54;3.33;;;2.30;;
50880;SDS011;36858;47.832;-3.800;2024-01-16T12:04:27;3.33;;;2.03;;
50880;SDS011;36858;47.832;-3.800;2024-01-16T12:06:57;2.60;;;2.07;;
50880;SDS011;36858;47.832;-3.800;2024-01-16T12:09:26;3.23;;;2.37;;
50880;SDS011;36858;47.832;-3.800;2024-01-16T12:12:01;2.37;;;2.13;;
50880;SDS011;36858;47.832;-3.800;2024-01-16T12:14:29;2.30;;;2.03;;
50880;SDS011;36858;47.832;-3.800;2024-01-16T12:17:12;2.37;;;1.90;;
50880;SDS011;36858;47.832;-3.800;2024-01-16T12:19:40;4.10;;;2.20;;
50880;SDS011;36858;47.832;-3.800;2024-01-16T12:22:10;5.37;;;2.37;;
50880;SDS011;36858;47.832;-3.800;2024-01-16T12:24:39;3.17;;;2.60;;
50880;SDS011;36858;47.832;-3.800;2024-01-16T12:27:07;3.00;;;2.20;;
50880;SDS011;36858;47.832;-3.800;2024-01-16T12:29:34;1.87;;;1.67;;
50880;SDS011;36858;47.832;-3.800;2024-01-16T12:32:08;3.83;;;1.93;;
50880;SDS011;36858;47.832;-3.800;2024-01-16T12:34:46;2.10;;;1.60;;
50880;SDS011;36858;47.832;-3.800;2024-01-16T12:37:17;4.90;;;2.17;;
50880;SDS011;36858;47.832;-3.800;2024-01-16T12:39:44;2.70;;;2.03;;
50880;SDS011;36858;47.832;-3.800;2024-01-16T12:42:11;2.00;;;1.80;;
50880;SDS011;36858;47.832;-3.800;2024-01-16T12:44:39;2.57;;;2.07;;
50880;SDS011;36858;47.832;-3.800;2024-01-16T12:47:06;3.03;;;2.20;;
50880;SDS011;36858;47.832;-3.800;2024-01-16T12:49:33;3.10;;;1.63;;
50880;SDS011;36858;47.832;-3.800;2024-01-16T12:52:20;2.10;;;1.90;;
50880;SDS011;36858;47.832;-3.800;2024-01-16T12:54:48;3.03;;;1.87;;
50880;SDS011;36858;47.832;-3.800;2024-01-16T12:57:19;2.27;;;1.93;;
50880;SDS011;36858;47.832;-3.800;2024-01-16T12:59:47;2.10;;;1.90;;
50880;SDS011;36858;47.832;-3.800;2024-01-16T13:02:22;2.27;;;1.83;;
50880;SDS011;36858;47.832;-3.800;2024-01-16T13:05:00;3.23;;;1.90;;
50880;SDS011;36858;47.832;-3.800;2024-01-16T13:07:29;3.13;;;2.10;;
50880;SDS011;36858;47.832;-3.800;2024-01-16T13:10:19;2.07;;;1.87;;
50880;SDS011;36858;47.832;-3.800;2024-01-16T13:12:49;3.47;;;1.90;;
50880;SDS011;36858;47.832;-3.800;2024-01-16T13:15:15;3.00;;;2.00;;
50880;SDS011;36858;47.832;-3.800;2024-01-16T13:17:43;2.50;;;1.90;;
50880;SDS011;36858;47.832;-3.800;2024-01-16T13:20:11;3.77;;;2.10;;
50880;SDS011;36858;47.832;-3.800;2024-01-16T13:22:39;2.03;;;1.73;;
50880;SDS011;36858;47.832;-3.800;2024-01-16T13:25:13;3.43;;;2.40;;
50880;SDS011;36858;47.832;-3.800;2024-01-16T13:27:40;3.10;;;1.80;;
50880;SDS011;36858;47.832;-3.800;2024-01-16T13:30:07;2.10;;;1.67;;
50880;SDS011;36858;47.832;-3.800;2024-01-16T13:32:35;3.57;;;1.87;;
50880;SDS011;36858;47.832;-3.800;2024-01-16T13:35:04;3.13;;;1.80;;
50880;SDS011;36858;47.832;-3.800;2024-01-16T13:37:35;2.57;;;1.57;;
50880;SDS011;36858;47.832;-3.800;2024-01-16T13:40:05;2.33;;;1.90;;
50880;SDS011;36858;47.832;-3.800;2024-01-16T13:42:36;1.90;;;1.60;;
50880;SDS011;36858;47.832;-3.800;2024-01-16T13:45:03;4.13;;;2.40;;
50880;SDS011;36858;47.832;-3.800;2024-01-16T13:47:31;2.63;;;1.70;;
50880;SDS011;36858;47.832;-3.800;2024-01-16T13:49:58;3.83;;;2.47;;
50880;SDS011;36858;47.832;-3.800;2024-01-16T13:52:25;2.70;;;1.53;;
50880;SDS011;36858;47.832;-3.800;2024-01-16T13:54:54;2.77;;;1.90;;
50880;SDS011;36858;47.832;-3.800;2024-01-16T13:57:21;2.50;;;2.30;;
50880;SDS011;36858;47.832;-3.800;2024-01-16T13:59:48;3.70;;;1.93;;
50880;SDS011;36858;47.832;-3.800;2024-01-16T14:02:15;3.13;;;2.17;;
50880;SDS011;36858;47.832;-3.800;2024-01-16T14:04:42;4.60;;;2.10;;
50880;SDS011;36858;47.832;-3.800;2024-01-16T14:07:10;2.63;;;2.07;;
50880;SDS011;36858;47.832;-3.800;2024-01-16T14:09:40;3.90;;;2.60;;
50880;SDS011;36858;47.832;-3.800;2024-01-16T14:12:10;5.73;;;2.40;;
50880;SDS011;36858;47.832;-3.800;2024-01-16T14:14:38;3.07;;;1.63;;
50880;SDS011;36858;47.832;-3.800;2024-01-16T14:17:06;3.27;;;2.00;;
50880;SDS011;36858;47.832;-3.800;2024-01-16T14:19:34;7.90;;;1.80;;
50880;SDS011;36858;47.832;-3.800;2024-01-16T14:22:01;3.13;;;1.83;;
50880;SDS011;36858;47.832;-3.800;2024-01-16T14:24:29;3.93;;;2.00;;
50880;SDS011;36858;47.832;-3.800;2024-01-16T14:26:56;2.70;;;2.00;;
50880;SDS011;36858;47.832;-3.800;2024-01-16T14:29:23;2.67;;;1.60;;
50880;SDS011;36858;47.832;-3.800;2024-01-16T14:31:51;2.63;;;1.70;;
50880;SDS011;36858;47.832;-3.800;2024-01-16T14:34:18;1.90;;;1.50;;
50880;SDS011;36858;47.832;-3.800;2024-01-16T14:36:45;1.63;;;1.30;;
50880;SDS011;36858;47.832;-3.800;2024-01-16T14:39:13;2.67;;;1.80;;
50880;SDS011;36858;47.832;-3.800;2024-01-16T14:41:44;2.30;;;1.80;;
50880;SDS011;36858;47.832;-3.800;2024-01-16T14:44:12;3.37;;;1.77;;
50880;SDS011;36858;47.832;-3.800;2024-01-16T14:46:40;2.53;;;1.70;;
50880;SDS011;36858;47.832;-3.800;2024-01-16T14:49:11;3.27;;;1.60;;
50880;SDS011;36858;47.832;-3.800;2024-01-16T14:51:38;1.77;;;1.20;;
50880;SDS011;36858;47.832;-3.800;2024-01-16T14:54:05;1.40;;;1.30;;
50880;SDS011;36858;47.832;-3.800;2024-01-16T14:56:32;10.03;;;2.33;;